createdAt,value
2024-02-18T00:00:22.188Z,32.20
2024-02-18T00:03:10.603Z,33.90
2024-02-18T00:05:39.296Z,28.30
2024-02-18T00:08:07.709Z,33.80
2024-02-18T00:10:35.955Z,30.50
2024-02-18T00:13:04.499Z,33.40
2024-02-18T00:15:33.124Z,31.60
2024-02-18T00:18:02.280Z,36.40
2024-02-18T00:20:30.665Z,33.20
2024-02-18T00:22:59.022Z,32.40
2024-02-18T00:25:27.379Z,32.40
2024-02-18T00:27:55.906Z,32.00
2024-02-18T00:30:26.246Z,34.00
2024-02-18T00:32:55.022Z,31.40
2024-02-18T00:35:23.517Z,35.90
2024-02-18T00:37:51.918Z,33.20
2024-02-18T00:40:20.754Z,33.60
2024-02-18T00:42:49.137Z,40.70
2024-02-18T00:45:17.466Z,36.20
2024-02-18T00:47:45.872Z,36.60
2024-02-18T00:50:14.136Z,36.30
2024-02-18T00:52:42.381Z,34.00
2024-02-18T00:55:11.030Z,34.80
2024-02-18T00:57:39.406Z,32.30
2024-02-18T01:00:09.229Z,33.30
2024-02-18T01:02:37.522Z,32.90
2024-02-18T01:05:05.981Z,31.10
2024-02-18T01:07:34.265Z,36.80
2024-02-18T01:10:02.685Z,41.20
2024-02-18T01:12:31.218Z,39.50
2024-02-18T01:14:59.554Z,40.60
2024-02-18T01:17:27.965Z,40.00
2024-02-18T01:19:59.353Z,44.00
2024-02-18T01:22:28.260Z,36.70
2024-02-18T01:24:56.753Z,40.50
2024-02-18T01:27:25.112Z,35.40
2024-02-18T01:29:53.449Z,34.60
2024-02-18T01:32:22.001Z,26.10
2024-02-18T01:34:51.027Z,38.10
2024-02-18T01:37:19.368Z,37.70
2024-02-18T01:39:47.691Z,34.90
2024-02-18T01:42:15.971Z,38.50
2024-02-18T01:44:44.301Z,39.60
2024-02-18T01:47:12.935Z,42.10
2024-02-18T01:49:41.564Z,38.30
2024-02-18T01:52:11.128Z,36.30
2024-02-18T01:54:39.529Z,37.70
2024-02-18T01:57:08.937Z,36.70
2024-02-18T01:59:37.988Z,40.00
2024-02-18T02:02:06.399Z,36.30
2024-02-18T02:04:35.162Z,37.50
2024-02-18T02:07:04.479Z,40.20
2024-02-18T02:09:33.065Z,40.70
2024-02-18T02:12:02.135Z,36.60
2024-02-18T02:14:30.556Z,38.80
2024-02-18T02:16:58.870Z,38.00
2024-02-18T02:19:27.293Z,37.00
2024-02-18T02:21:56.082Z,40.60
2024-02-18T02:24:24.500Z,41.20
2024-02-18T02:26:57.029Z,39.40
2024-02-18T02:29:25.627Z,43.20
2024-02-18T02:31:57.673Z,39.00
2024-02-18T02:36:55.130Z,43.90
2024-02-18T02:39:23.611Z,41.30
2024-02-18T02:41:52.571Z,41.50
2024-02-18T02:44:20.881Z,41.70
2024-02-18T02:46:50.214Z,43.80
2024-02-18T02:49:18.726Z,42.10
2024-02-18T02:51:47.235Z,40.50
2024-02-18T02:54:15.786Z,52.60
2024-02-18T02:56:44.282Z,49.10
2024-02-18T02:59:12.510Z,52.90
2024-02-18T03:01:41.052Z,50.10
2024-02-18T03:04:10.723Z,47.40
2024-02-18T03:06:39.206Z,50.20
2024-02-18T03:09:08.708Z,46.70
2024-02-18T03:11:37.059Z,50.70
2024-02-18T03:14:05.657Z,51.80
2024-02-18T03:16:33.968Z,49.80
2024-02-18T03:19:02.417Z,53.80
2024-02-18T03:21:30.913Z,47.90
2024-02-18T03:23:59.240Z,56.00
2024-02-18T03:26:27.494Z,59.10
2024-02-18T03:28:55.842Z,50.40
2024-02-18T03:31:24.254Z,56.70
2024-02-18T03:33:53.326Z,53.40
2024-02-18T03:36:22.046Z,60.60
2024-02-18T03:38:50.461Z,50.30
2024-02-18T03:41:18.790Z,47.30
2024-02-18T03:43:47.180Z,57.10
2024-02-18T03:46:16.149Z,53.90
2024-02-18T03:48:44.563Z,56.30
2024-02-18T03:51:12.972Z,53.50
2024-02-18T03:53:41.266Z,52.50
2024-02-18T03:56:12.726Z,49.80
2024-02-18T03:58:41.944Z,55.80
2024-02-18T04:01:10.481Z,44.60
2024-02-18T04:03:38.993Z,43.50
2024-02-18T04:06:07.540Z,42.40
2024-02-18T04:08:36.063Z,42.40
2024-02-18T04:11:04.715Z,43.40
2024-02-18T04:13:33.044Z,43.80
2024-02-18T04:16:01.362Z,40.10
2024-02-18T04:18:29.952Z,45.90
2024-02-18T04:20:58.944Z,40.70
2024-02-18T04:23:27.417Z,46.70
2024-02-18T04:25:55.821Z,41.50
2024-02-18T04:28:24.090Z,36.80
2024-02-18T04:30:52.521Z,44.60
2024-02-18T04:33:21.130Z,45.30
2024-02-18T04:35:49.675Z,40.10
2024-02-18T04:38:17.947Z,43.40
2024-02-18T04:40:46.705Z,45.80
2024-02-18T04:43:15.051Z,43.40
2024-02-18T04:45:45.127Z,41.70
2024-02-18T04:48:13.561Z,39.20
2024-02-18T04:50:42.043Z,40.00
2024-02-18T04:53:10.393Z,38.80
2024-02-18T04:55:38.625Z,41.20
2024-02-18T04:58:07.073Z,40.70
2024-02-18T05:00:35.445Z,40.50
2024-02-18T05:03:04.273Z,35.60
2024-02-18T05:05:32.870Z,38.70
2024-02-18T05:08:01.352Z,43.20
2024-02-18T05:10:29.620Z,42.90
2024-02-18T05:12:58.186Z,37.70
2024-02-18T05:15:26.534Z,41.10
2024-02-18T05:17:55.030Z,36.70
2024-02-18T05:20:23.388Z,36.00
2024-02-18T05:22:51.618Z,36.90
2024-02-18T05:25:19.984Z,35.20
2024-02-18T05:27:48.266Z,39.80
2024-02-18T05:30:16.821Z,38.30
2024-02-18T05:32:45.247Z,42.60
2024-02-18T05:35:13.962Z,44.80
2024-02-18T05:37:42.345Z,43.50
2024-02-18T05:40:10.792Z,37.80
2024-02-18T05:42:39.122Z,36.50
2024-02-18T05:45:07.930Z,41.20
2024-02-18T05:47:36.277Z,41.20
2024-02-18T05:50:05.555Z,38.00
2024-02-18T05:52:34.042Z,39.00
2024-02-18T05:55:02.441Z,36.20
2024-02-18T05:57:30.799Z,39.70
2024-02-18T05:59:59.064Z,38.20
2024-02-18T06:02:27.315Z,35.10
2024-02-18T06:04:55.609Z,39.00
2024-02-18T06:07:24.105Z,35.80
2024-02-18T06:09:52.673Z,38.70
2024-02-18T06:12:21.106Z,38.10
2024-02-18T06:14:50.077Z,37.10
2024-02-18T06:17:19.946Z,34.00
2024-02-18T06:19:48.382Z,37.20
2024-02-18T06:22:16.801Z,36.20
2024-02-18T06:24:45.304Z,37.80
2024-02-18T06:27:14.335Z,36.40
2024-02-18T06:29:42.628Z,37.10
2024-02-18T06:32:10.883Z,37.30
2024-02-18T06:34:39.294Z,34.70
2024-02-18T06:37:07.778Z,33.90
2024-02-18T06:39:36.091Z,30.50
2024-02-18T06:42:04.874Z,32.30
2024-02-18T06:44:33.213Z,38.00
2024-02-18T06:47:01.619Z,33.40
2024-02-18T06:49:30.144Z,39.90
2024-02-18T06:51:59.367Z,39.50
2024-02-18T06:54:27.748Z,36.50
2024-02-18T06:56:56.095Z,37.00
2024-02-18T06:59:24.362Z,41.60
2024-02-18T07:01:52.816Z,33.80
2024-02-18T07:04:21.506Z,35.90
2024-02-18T07:06:50.176Z,34.10
2024-02-18T07:09:18.622Z,39.70
2024-02-18T07:11:46.840Z,39.70
2024-02-18T07:14:15.134Z,37.40
2024-02-18T07:16:43.436Z,41.10
2024-02-18T07:19:12.070Z,39.30
2024-02-18T07:21:40.638Z,38.50
2024-02-18T07:24:09.067Z,40.30
2024-02-18T07:26:38.786Z,33.60
2024-02-18T07:29:07.300Z,34.90
2024-02-18T07:31:38.631Z,39.40
2024-02-18T07:34:08.038Z,37.90
2024-02-18T07:36:36.631Z,39.90
2024-02-18T07:39:05.220Z,35.00
2024-02-18T07:41:33.649Z,36.20
2024-02-18T07:44:01.937Z,37.60
2024-02-18T07:46:30.336Z,36.30
2024-02-18T07:48:58.742Z,31.70
2024-02-18T07:51:30.279Z,34.40
2024-02-18T07:53:58.602Z,34.00
2024-02-18T07:56:26.904Z,35.00
2024-02-18T07:58:55.208Z,34.10
2024-02-18T08:01:24.586Z,32.80
2024-02-18T08:03:53.378Z,31.30
2024-02-18T08:06:21.763Z,32.80
2024-02-18T08:08:50.156Z,31.30
2024-02-18T08:11:18.677Z,24.90
2024-02-18T08:13:47.089Z,32.80
2024-02-18T08:16:15.893Z,25.60
2024-02-18T08:18:44.369Z,25.60
2024-02-18T08:21:12.890Z,24.80
2024-02-18T08:23:41.157Z,24.30
2024-02-18T08:26:21.400Z,22.10
2024-02-18T08:28:51.645Z,27.30
2024-02-18T08:31:20.962Z,22.80
2024-02-18T08:33:50.338Z,20.90
2024-02-18T08:36:18.823Z,19.80
2024-02-18T08:38:48.974Z,20.60
2024-02-18T08:41:17.283Z,17.70
2024-02-18T08:43:47.066Z,16.70
2024-02-18T08:46:15.484Z,15.30
2024-02-18T08:48:43.907Z,16.20
2024-02-18T08:51:12.348Z,13.80
2024-02-18T08:53:42.619Z,15.70
2024-02-18T08:56:12.560Z,11.30
2024-02-18T08:58:41.049Z,11.80
2024-02-18T09:01:12.400Z,10.40
2024-02-18T09:03:40.971Z,8.60
2024-02-18T09:06:09.882Z,8.10
2024-02-18T09:08:38.509Z,8.20
2024-02-18T09:11:07.007Z,6.10
2024-02-18T09:13:35.522Z,8.40
2024-02-18T09:16:04.517Z,8.30
2024-02-18T09:18:33.036Z,8.50
2024-02-18T09:21:03.733Z,7.70
2024-02-18T09:23:32.124Z,7.60
2024-02-18T09:26:00.623Z,6.20
2024-02-18T09:28:30.144Z,6.20
2024-02-18T09:31:01.732Z,6.90
2024-02-18T09:33:30.237Z,6.70
2024-02-18T09:35:58.901Z,5.60
2024-02-18T09:38:27.675Z,4.60
2024-02-18T09:40:56.039Z,5.20
2024-02-18T09:43:26.409Z,8.90
2024-02-18T09:45:57.217Z,7.20
2024-02-18T09:48:27.177Z,4.80
2024-02-18T09:50:55.668Z,62.30
2024-02-18T09:53:23.975Z,137.80
2024-02-18T09:55:52.308Z,33.30
2024-02-18T09:58:20.784Z,17.40
2024-02-18T10:00:49.246Z,44.90
2024-02-18T10:03:17.730Z,60.00
2024-02-18T10:05:46.111Z,7.00
2024-02-18T10:08:14.465Z,66.70
2024-02-18T10:10:42.838Z,48.90
2024-02-18T10:13:12.116Z,64.30
2024-02-18T10:15:40.624Z,100.00
2024-02-18T10:18:11.535Z,128.90
2024-02-18T10:20:40.101Z,22.40
2024-02-18T10:23:08.424Z,74.30
2024-02-18T10:25:37.272Z,76.30
2024-02-18T10:28:06.547Z,20.30
2024-02-18T10:30:37.302Z,18.60
2024-02-18T10:33:06.177Z,18.00
2024-02-18T10:35:35.611Z,25.30
2024-02-18T10:38:09.963Z,11.80
2024-02-18T10:40:48.474Z,11.20
2024-02-18T10:43:20.826Z,5.30
2024-02-18T10:45:50.180Z,6.70
2024-02-18T10:48:20.963Z,4.00
2024-02-18T10:50:51.414Z,7.90
2024-02-18T10:53:26.890Z,15.00
2024-02-18T10:56:04.439Z,11.10
2024-02-18T10:58:58.964Z,9.70
2024-02-18T11:01:30.705Z,28.50
2024-02-18T11:04:06.823Z,17.00
2024-02-18T11:06:37.979Z,31.30
2024-02-18T11:09:09.911Z,12.90
2024-02-18T11:11:40.570Z,16.10
2024-02-18T11:14:10.543Z,7.10
2024-02-18T11:16:41.096Z,5.50
2024-02-18T11:19:11.140Z,3.00
2024-02-18T11:21:41.269Z,11.50
2024-02-18T11:24:09.800Z,6.50
2024-02-18T11:26:38.105Z,2.20
2024-02-18T11:29:06.642Z,3.40
2024-02-18T11:31:35.723Z,2.70
2024-02-18T11:34:05.076Z,2.50
2024-02-18T11:36:34.326Z,2.30
2024-02-18T11:39:05.592Z,8.60
2024-02-18T11:41:35.970Z,4.70
2024-02-18T11:44:12.423Z,4.70
2024-02-18T11:46:43.535Z,6.60
2024-02-18T11:49:15.682Z,19.90
2024-02-18T11:51:44.516Z,8.90
2024-02-18T11:54:14.971Z,3.50
2024-02-18T11:56:43.338Z,17.90
2024-02-18T11:59:11.666Z,5.90
2024-02-18T12:01:40.188Z,6.00
2024-02-18T12:04:08.966Z,7.50
2024-02-18T12:06:38.105Z,4.00
2024-02-18T12:09:18.054Z,4.70
2024-02-18T12:11:49.333Z,3.30
2024-02-18T12:14:21.473Z,4.70
2024-02-18T12:16:52.147Z,2.90
2024-02-18T12:19:20.788Z,3.50
2024-02-18T12:21:56.946Z,2.40
2024-02-18T12:24:25.936Z,4.30
2024-02-18T12:26:54.419Z,3.80
2024-02-18T12:29:23.317Z,4.30
2024-02-18T12:31:51.935Z,13.40
2024-02-18T12:34:21.132Z,3.70
2024-02-18T12:36:49.838Z,2.60
2024-02-18T12:39:18.303Z,2.70
2024-02-18T12:41:47.552Z,2.60
2024-02-18T12:44:52.572Z,2.20
2024-02-18T12:47:05.279Z,2.20
2024-02-18T12:49:33.952Z,1.90
2024-02-18T12:52:12.219Z,3.80
2024-02-18T12:54:40.786Z,2.50
2024-02-18T12:57:09.238Z,4.20
2024-02-18T12:59:38.558Z,2.70
2024-02-18T13:02:08.147Z,2.70
2024-02-18T13:04:36.782Z,3.20
2024-02-18T13:07:10.419Z,2.40
2024-02-18T13:09:39.747Z,3.10
2024-02-18T13:12:08.403Z,4.90
2024-02-18T13:14:39.097Z,1.90
2024-02-18T13:17:07.615Z,3.50
2024-02-18T13:19:37.739Z,2.60
2024-02-18T13:22:06.435Z,2.60
2024-02-18T13:24:34.869Z,1.90
2024-02-18T13:27:03.717Z,2.90
2024-02-18T13:29:32.480Z,2.40
2024-02-18T13:32:01.235Z,2.00
2024-02-18T13:34:29.899Z,3.80
2024-02-18T13:37:00.871Z,3.10
2024-02-18T13:39:29.524Z,2.60
2024-02-18T13:42:00.006Z,2.20
2024-02-18T13:44:28.357Z,2.50
2024-02-18T13:46:58.551Z,2.30
2024-02-18T13:49:26.994Z,2.50
2024-02-18T13:51:55.529Z,2.70
2024-02-18T13:54:23.872Z,2.60
2024-02-18T13:56:52.585Z,2.50
2024-02-18T13:59:21.812Z,1.80
2024-02-18T14:01:50.729Z,2.60
2024-02-18T14:04:19.066Z,2.40
2024-02-18T14:06:47.482Z,2.70
2024-02-18T14:09:15.814Z,2.50
2024-02-18T14:11:44.710Z,2.10
2024-02-18T14:14:12.948Z,2.60
2024-02-18T14:16:41.462Z,2.70
2024-02-18T14:19:10.118Z,4.10
2024-02-18T14:21:38.393Z,4.70
2024-02-18T14:24:06.934Z,3.30
2024-02-18T14:26:35.384Z,4.00
2024-02-18T14:29:03.640Z,3.60
2024-02-18T14:31:32.129Z,3.30
2024-02-18T14:34:01.998Z,3.20
2024-02-18T14:36:30.586Z,2.90
2024-02-18T14:38:58.994Z,3.00
2024-02-18T14:41:27.728Z,2.90
2024-02-18T14:43:56.008Z,3.40
2024-02-18T14:46:24.318Z,8.50
2024-02-18T14:48:52.665Z,7.20
2024-02-18T14:51:21.172Z,6.80
2024-02-18T14:53:51.071Z,7.40
2024-02-18T14:56:21.561Z,6.60
2024-02-18T14:58:51.050Z,4.40
2024-02-18T15:01:22.661Z,5.00
2024-02-18T15:03:51.148Z,6.40
2024-02-18T15:06:19.691Z,3.60
2024-02-18T15:08:48.550Z,4.70
2024-02-18T15:11:19.697Z,4.20
2024-02-18T15:13:48.115Z,4.90
2024-02-18T15:16:16.555Z,3.70
2024-02-18T15:18:44.950Z,3.10
2024-02-18T15:21:13.548Z,3.00
2024-02-18T15:23:42.038Z,3.20
2024-02-18T15:26:11.001Z,3.00
2024-02-18T15:28:39.322Z,3.70
2024-02-18T15:31:10.886Z,5.10
2024-02-18T15:33:40.468Z,4.70
2024-02-18T15:36:13.452Z,5.00
2024-02-18T15:38:43.347Z,4.30
2024-02-18T15:41:11.881Z,5.90
2024-02-18T15:43:40.291Z,4.30
2024-02-18T15:46:08.713Z,7.40
2024-02-18T15:48:37.287Z,6.10
2024-02-18T15:51:06.204Z,7.40
2024-02-18T15:53:34.538Z,9.30
2024-02-18T15:56:03.525Z,7.30
2024-02-18T15:58:32.569Z,7.70
2024-02-18T16:01:02.365Z,6.40
2024-02-18T16:03:31.091Z,5.00
2024-02-18T16:05:59.939Z,3.90
2024-02-18T16:08:36.919Z,3.40
2024-02-18T16:11:06.902Z,3.20
2024-02-18T16:13:46.384Z,2.70
2024-02-18T16:16:16.238Z,3.00
2024-02-18T16:18:44.832Z,5.80
2024-02-18T16:21:13.667Z,6.10
2024-02-18T16:23:44.326Z,6.30
2024-02-18T16:26:16.200Z,4.80
2024-02-18T16:28:44.476Z,3.70
2024-02-18T16:31:12.988Z,5.20
2024-02-18T16:33:41.667Z,4.20
2024-02-18T16:36:10.175Z,3.70
2024-02-18T16:38:38.875Z,4.40
2024-02-18T16:41:07.194Z,5.80
2024-02-18T16:43:36.465Z,8.00
2024-02-18T16:46:05.781Z,9.60
2024-02-18T16:48:36.430Z,6.90
2024-02-18T16:51:06.673Z,4.90
2024-02-18T16:53:35.209Z,6.00
2024-02-18T16:56:08.696Z,5.60
2024-02-18T16:58:36.963Z,4.70
2024-02-18T17:01:08.166Z,4.50
2024-02-18T17:03:36.669Z,4.60
2024-02-18T17:06:05.665Z,4.80
2024-02-18T17:08:34.001Z,6.40
2024-02-18T17:11:04.251Z,8.40
2024-02-18T17:13:32.799Z,5.00
2024-02-18T17:16:01.272Z,5.50
2024-02-18T17:18:30.045Z,7.40
2024-02-18T17:20:58.718Z,6.30
2024-02-18T17:23:27.148Z,5.20
2024-02-18T17:25:55.515Z,7.10
2024-02-18T17:28:24.166Z,7.60
2024-02-18T17:30:57.374Z,6.30
2024-02-18T17:33:26.024Z,5.70
2024-02-18T17:35:55.240Z,5.50
2024-02-18T17:38:23.537Z,7.60
2024-02-18T17:40:52.806Z,6.80
2024-02-18T17:43:23.130Z,7.20
2024-02-18T17:45:52.399Z,7.10
2024-02-18T17:48:21.313Z,6.60
2024-02-18T17:50:52.814Z,6.60
2024-02-18T17:53:21.832Z,5.50
2024-02-18T17:55:50.358Z,6.80
2024-02-18T17:58:19.095Z,8.10
2024-02-18T18:03:41.026Z,4.20
2024-02-18T18:06:10.259Z,6.00
2024-02-18T18:08:39.517Z,4.90
2024-02-18T18:11:07.921Z,5.30
2024-02-18T18:13:36.472Z,4.10
2024-02-18T18:16:08.626Z,3.60
2024-02-18T18:18:37.736Z,3.40
2024-02-18T18:21:11.202Z,3.90
2024-02-18T18:23:40.573Z,5.30
2024-02-18T18:26:08.915Z,4.40
2024-02-18T18:28:37.358Z,4.80
2024-02-18T18:31:06.350Z,3.70
2024-02-18T18:33:37.562Z,6.00
2024-02-18T18:36:08.835Z,3.60
2024-02-18T18:38:37.413Z,3.70
2024-02-18T18:41:06.441Z,3.60
2024-02-18T18:43:34.767Z,3.00
2024-02-18T18:46:03.188Z,4.10
2024-02-18T18:48:33.483Z,4.90
2024-02-18T18:51:02.255Z,5.80
2024-02-18T18:53:30.918Z,3.30
2024-02-18T18:55:59.167Z,3.70
2024-02-18T18:58:27.501Z,3.40
2024-02-18T19:00:56.513Z,3.40
2024-02-18T19:03:25.557Z,3.70
2024-02-18T19:05:54.718Z,3.30
2024-02-18T19:08:23.103Z,4.00
2024-02-18T19:10:51.480Z,2.80
2024-02-18T19:13:38.788Z,3.10
2024-02-18T19:16:09.881Z,4.70
2024-02-18T19:18:40.294Z,2.80
2024-02-18T19:21:09.202Z,3.20
2024-02-18T19:23:39.218Z,3.00
2024-02-18T19:26:12.778Z,3.80
2024-02-18T19:28:42.162Z,4.50
2024-02-18T19:31:14.356Z,4.80
2024-02-18T19:33:45.562Z,7.40
2024-02-18T19:36:16.842Z,8.10
2024-02-18T19:38:46.500Z,8.80
2024-02-18T19:41:15.343Z,7.80
2024-02-18T19:43:43.715Z,6.80
2024-02-18T19:46:12.424Z,8.20
2024-02-18T19:48:42.467Z,8.20
2024-02-18T19:51:12.336Z,11.10
2024-02-18T19:53:43.300Z,10.00
2024-02-18T19:56:11.689Z,8.40
2024-02-18T19:58:40.013Z,4.20
2024-02-18T20:01:11.740Z,6.80
2024-02-18T20:03:40.577Z,4.70
2024-02-18T20:06:08.995Z,5.40
2024-02-18T20:08:38.887Z,9.50
2024-02-18T20:11:08.447Z,10.90
2024-02-18T20:13:38.020Z,13.20
2024-02-18T20:16:07.565Z,16.80
2024-02-18T20:18:38.045Z,18.10
2024-02-18T20:21:07.098Z,10.70
2024-02-18T20:23:37.544Z,11.10
2024-02-18T20:26:05.966Z,29.80
2024-02-18T20:28:34.312Z,14.50
2024-02-18T20:31:02.633Z,43.80
2024-02-18T20:33:31.116Z,13.40
2024-02-18T20:35:59.533Z,17.70
2024-02-18T20:38:27.935Z,21.00
2024-02-18T20:40:56.299Z,32.40
2024-02-18T20:43:24.560Z,35.90
2024-02-18T20:45:52.878Z,18.30
2024-02-18T20:48:21.494Z,11.50
2024-02-18T20:50:49.936Z,8.20
2024-02-18T20:53:18.705Z,5.70
2024-02-18T20:55:47.136Z,10.30
2024-02-18T20:58:16.175Z,21.50
2024-02-18T21:00:44.593Z,23.40
2024-02-18T21:03:13.463Z,15.50
2024-02-18T21:05:43.675Z,19.00
2024-02-18T21:08:12.131Z,14.70
2024-02-18T21:10:40.592Z,37.20
2024-02-18T21:13:08.959Z,20.40
2024-02-18T21:15:37.322Z,20.60
2024-02-18T21:18:06.352Z,11.90
2024-02-18T21:20:34.855Z,6.40
2024-02-18T21:23:03.505Z,6.60
2024-02-18T21:25:32.061Z,6.60
2024-02-18T21:28:00.845Z,6.20
2024-02-18T21:30:29.141Z,6.30
2024-02-18T21:32:57.478Z,6.30
2024-02-18T21:35:26.020Z,6.60
2024-02-18T21:37:54.409Z,7.20
2024-02-18T21:40:22.943Z,8.10
2024-02-18T21:42:51.600Z,7.80
2024-02-18T21:45:20.100Z,6.90
2024-02-18T21:47:51.589Z,8.30
2024-02-18T21:50:22.772Z,9.80
2024-02-18T21:52:51.319Z,7.20
2024-02-18T21:55:19.871Z,14.10
2024-02-18T21:57:49.247Z,11.20
2024-02-18T22:00:18.246Z,10.70
2024-02-18T22:02:46.567Z,6.80
2024-02-18T22:05:20.261Z,6.10
2024-02-18T22:07:48.810Z,4.00
2024-02-18T22:10:19.708Z,4.20
2024-02-18T22:12:48.239Z,4.10
2024-02-18T22:15:16.493Z,4.00
2024-02-18T22:17:45.014Z,3.30
2024-02-18T22:20:13.573Z,5.40
2024-02-18T22:22:42.068Z,8.70
2024-02-18T22:25:10.698Z,6.70
2024-02-18T22:27:39.114Z,6.70
2024-02-18T22:30:17.478Z,5.70
2024-02-18T22:32:46.014Z,4.60
2024-02-18T22:35:14.630Z,4.60
2024-02-18T22:37:43.102Z,5.10
2024-02-18T22:40:12.353Z,4.50
2024-02-18T22:42:40.795Z,3.10
2024-02-18T22:45:09.656Z,3.50
2024-02-18T22:47:37.975Z,4.30
2024-02-18T22:50:06.835Z,4.40
2024-02-18T22:52:35.106Z,4.50
2024-02-18T22:55:04.630Z,4.70
2024-02-18T22:57:33.094Z,5.00
2024-02-18T23:00:01.393Z,3.70
2024-02-18T23:02:30.089Z,4.90
2024-02-18T23:04:58.486Z,4.10
2024-02-18T23:07:26.842Z,5.10
2024-02-18T23:09:55.168Z,8.10
2024-02-18T23:12:23.619Z,4.90
2024-02-18T23:14:51.852Z,5.90
2024-02-18T23:17:20.148Z,6.40
2024-02-18T23:19:48.471Z,6.50
2024-02-18T23:22:16.822Z,9.80
2024-02-18T23:24:45.480Z,4.40
2024-02-18T23:27:14.069Z,5.70
2024-02-18T23:29:42.339Z,7.90
2024-02-18T23:32:10.721Z,9.50
2024-02-18T23:34:39.243Z,10.50
2024-02-18T23:37:08.343Z,6.70
2024-02-18T23:39:36.780Z,6.60
2024-02-18T23:42:05.542Z,7.80
2024-02-18T23:44:33.926Z,5.20
2024-02-18T23:47:02.239Z,5.00
2024-02-18T23:49:30.660Z,4.00
2024-02-18T23:51:59.168Z,4.90
2024-02-18T23:54:27.573Z,4.40
2024-02-18T23:56:57.592Z,5.80
2024-02-18T23:59:25.873Z,3.40
